Terminal Aerodrome Forecast
Issued by NWS

Home | Current Version | Previous Version | Text Only | Print | Product List | Glossary On
Versions: 1 2 3 4 5 6 7 8 9 10 11 12 13 14 15 16 17 18 19 20 21 22 23 24 25 26 27 28 29 30 31 32 33 34
157
FTUS43 KLOT 171120
TAFORD
TAF
KORD 171120Z 1712/1818 22007KT P6SM SCT250
     FM171400 22013G19KT P6SM FEW250
     FM171800 23015G24KT P6SM FEW250
     FM180000 21009KT P6SM SKC
     FM181500 20013G23KT P6SM SKC=

USA.gov is the U.S. government's official web portal to all federal, state and local government web resources and services.